sensor_id;sensor_type;location;lat;lon;timestamp;P1;durP1;ratioP1;P2;durP2;ratioP2
76935;SDS011;65881;52.438;16.744;2023-05-10T00:02:22;10.57;;;6.85;;
76935;SDS011;65881;52.438;16.744;2023-05-10T00:04:49;9.70;;;6.28;;
76935;SDS011;65881;52.438;16.744;2023-05-10T00:07:15;12.10;;;7.10;;
76935;SDS011;65881;52.438;16.744;2023-05-10T00:09:42;10.77;;;7.30;;
76935;SDS011;65881;52.438;16.744;2023-05-10T00:12:08;14.25;;;6.65;;
76935;SDS011;65881;52.438;16.744;2023-05-10T00:14:34;11.25;;;6.93;;
76935;SDS011;65881;52.438;16.744;2023-05-10T00:17:00;9.40;;;6.47;;
76935;SDS011;65881;52.438;16.744;2023-05-10T00:19:25;12.57;;;7.65;;
76935;SDS011;65881;52.438;16.744;2023-05-10T00:21:51;11.55;;;8.10;;
76935;SDS011;65881;52.438;16.744;2023-05-10T00:24:17;10.93;;;6.97;;
76935;SDS011;65881;52.438;16.744;2023-05-10T00:26:42;8.68;;;6.53;;
76935;SDS011;65881;52.438;16.744;2023-05-10T00:29:08;10.95;;;7.18;;
76935;SDS011;65881;52.438;16.744;2023-05-10T00:31:34;10.73;;;6.70;;
76935;SDS011;65881;52.438;16.744;2023-05-10T00:33:59;10.55;;;6.32;;
76935;SDS011;65881;52.438;16.744;2023-05-10T00:36:25;11.13;;;7.57;;
76935;SDS011;65881;52.438;16.744;2023-05-10T00:38:51;12.15;;;7.10;;
76935;SDS011;65881;52.438;16.744;2023-05-10T00:41:16;10.20;;;6.55;;
76935;SDS011;65881;52.438;16.744;2023-05-10T00:43:42;13.05;;;6.80;;
76935;SDS011;65881;52.438;16.744;2023-05-10T00:46:08;10.45;;;6.30;;
76935;SDS011;65881;52.438;16.744;2023-05-10T00:48:33;11.73;;;6.25;;
76935;SDS011;65881;52.438;16.744;2023-05-10T00:51:00;11.57;;;6.35;;
76935;SDS011;65881;52.438;16.744;2023-05-10T00:53:27;8.68;;;5.90;;
76935;SDS011;65881;52.438;16.744;2023-05-10T00:55:53;10.05;;;6.47;;
76935;SDS011;65881;52.438;16.744;2023-05-10T00:58:19;10.30;;;7.03;;
76935;SDS011;65881;52.438;16.744;2023-05-10T01:00:45;9.18;;;6.43;;
76935;SDS011;65881;52.438;16.744;2023-05-10T01:03:12;12.82;;;6.43;;
76935;SDS011;65881;52.438;16.744;2023-05-10T01:05:39;8.90;;;6.20;;
76935;SDS011;65881;52.438;16.744;2023-05-10T01:08:04;9.77;;;6.43;;
76935;SDS011;65881;52.438;16.744;2023-05-10T01:10:31;11.02;;;6.10;;
76935;SDS011;65881;52.438;16.744;2023-05-10T01:12:57;11.30;;;6.50;;
76935;SDS011;65881;52.438;16.744;2023-05-10T01:15:24;11.52;;;6.00;;
76935;SDS011;65881;52.438;16.744;2023-05-10T01:17:50;10.48;;;7.50;;
76935;SDS011;65881;52.438;16.744;2023-05-10T01:20:17;9.80;;;6.43;;
76935;SDS011;65881;52.438;16.744;2023-05-10T01:33:59;10.05;;;6.35;;
76935;SDS011;65881;52.438;16.744;2023-05-10T01:42:08;9.30;;;7.00;;
76935;SDS011;65881;52.438;16.744;2023-05-10T01:44:40;12.38;;;6.75;;
76935;SDS011;65881;52.438;16.744;2023-05-10T01:47:14;11.32;;;7.43;;
76935;SDS011;65881;52.438;16.744;2023-05-10T01:49:47;9.93;;;6.25;;
76935;SDS011;65881;52.438;16.744;2023-05-10T01:52:20;9.52;;;6.35;;
76935;SDS011;65881;52.438;16.744;2023-05-10T01:54:56;10.45;;;7.68;;
76935;SDS011;65881;52.438;16.744;2023-05-10T01:57:32;8.93;;;6.20;;
76935;SDS011;65881;52.438;16.744;2023-05-10T02:00:00;9.05;;;6.47;;
76935;SDS011;65881;52.438;16.744;2023-05-10T02:02:28;13.52;;;6.50;;
76935;SDS011;65881;52.438;16.744;2023-05-10T02:04:58;10.73;;;7.03;;
76935;SDS011;65881;52.438;16.744;2023-05-10T02:07:24;8.30;;;6.68;;
76935;SDS011;65881;52.438;16.744;2023-05-10T02:09:53;14.38;;;7.40;;
76935;SDS011;65881;52.438;16.744;2023-05-10T02:12:19;11.38;;;6.40;;
76935;SDS011;65881;52.438;16.744;2023-05-10T02:14:47;9.73;;;6.78;;
76935;SDS011;65881;52.438;16.744;2023-05-10T02:17:13;11.00;;;6.68;;
76935;SDS011;65881;52.438;16.744;2023-05-10T02:19:40;10.68;;;7.40;;
76935;SDS011;65881;52.438;16.744;2023-05-10T02:22:08;9.18;;;6.50;;
76935;SDS011;65881;52.438;16.744;2023-05-10T02:24:34;8.63;;;6.10;;
76935;SDS011;65881;52.438;16.744;2023-05-10T02:27:02;13.98;;;5.97;;
76935;SDS011;65881;52.438;16.744;2023-05-10T02:29:29;9.40;;;6.72;;
76935;SDS011;65881;52.438;16.744;2023-05-10T02:31:56;10.18;;;6.55;;
76935;SDS011;65881;52.438;16.744;2023-05-10T02:34:24;11.57;;;7.03;;
76935;SDS011;65881;52.438;16.744;2023-05-10T02:36:53;9.93;;;6.70;;
76935;SDS011;65881;52.438;16.744;2023-05-10T02:39:20;10.10;;;6.82;;
76935;SDS011;65881;52.438;16.744;2023-05-10T02:41:47;11.50;;;6.95;;
76935;SDS011;65881;52.438;16.744;2023-05-10T02:44:15;11.25;;;6.78;;
76935;SDS011;65881;52.438;16.744;2023-05-10T02:46:43;9.38;;;6.88;;
76935;SDS011;65881;52.438;16.744;2023-05-10T02:49:09;10.43;;;7.10;;
76935;SDS011;65881;52.438;16.744;2023-05-10T02:51:36;9.38;;;7.28;;
76935;SDS011;65881;52.438;16.744;2023-05-10T02:54:16;10.35;;;7.43;;
76935;SDS011;65881;52.438;16.744;2023-05-10T02:56:50;11.05;;;7.05;;
76935;SDS011;65881;52.438;16.744;2023-05-10T02:59:18;11.00;;;6.47;;
76935;SDS011;65881;52.438;16.744;2023-05-10T03:01:44;13.43;;;7.65;;
76935;SDS011;65881;52.438;16.744;2023-05-10T03:04:10;10.23;;;6.63;;
76935;SDS011;65881;52.438;16.744;2023-05-10T03:06:36;11.07;;;6.70;;
76935;SDS011;65881;52.438;16.744;2023-05-10T03:09:01;9.65;;;6.82;;
76935;SDS011;65881;52.438;16.744;2023-05-10T03:14:26;13.18;;;7.97;;
76935;SDS011;65881;52.438;16.744;2023-05-10T03:17:06;13.02;;;6.90;;
76935;SDS011;65881;52.438;16.744;2023-05-10T03:19:42;9.05;;;6.63;;
76935;SDS011;65881;52.438;16.744;2023-05-10T03:22:16;10.13;;;7.15;;
76935;SDS011;65881;52.438;16.744;2023-05-10T03:24:53;8.90;;;6.55;;
76935;SDS011;65881;52.438;16.744;2023-05-10T03:27:21;11.50;;;6.78;;
76935;SDS011;65881;52.438;16.744;2023-05-10T03:29:48;9.30;;;7.07;;
76935;SDS011;65881;52.438;16.744;2023-05-10T03:32:16;9.18;;;6.68;;
76935;SDS011;65881;52.438;16.744;2023-05-10T03:34:42;9.32;;;6.47;;
76935;SDS011;65881;52.438;16.744;2023-05-10T03:37:08;16.33;;;7.68;;
76935;SDS011;65881;52.438;16.744;2023-05-10T03:39:34;12.35;;;6.32;;
76935;SDS011;65881;52.438;16.744;2023-05-10T03:42:00;8.38;;;6.07;;
76935;SDS011;65881;52.438;16.744;2023-05-10T03:44:25;11.38;;;6.50;;
76935;SDS011;65881;52.438;16.744;2023-05-10T03:46:51;11.48;;;7.57;;
76935;SDS011;65881;52.438;16.744;2023-05-10T03:49:17;7.88;;;5.63;;
76935;SDS011;65881;52.438;16.744;2023-05-10T03:51:42;11.77;;;6.90;;
76935;SDS011;65881;52.438;16.744;2023-05-10T03:54:08;9.23;;;7.47;;
76935;SDS011;65881;52.438;16.744;2023-05-10T03:56:34;9.07;;;5.75;;
76935;SDS011;65881;52.438;16.744;2023-05-10T03:59:01;12.23;;;6.93;;
76935;SDS011;65881;52.438;16.744;2023-05-10T04:01:26;14.00;;;7.47;;
76935;SDS011;65881;52.438;16.744;2023-05-10T04:03:52;13.30;;;6.18;;
76935;SDS011;65881;52.438;16.744;2023-05-10T04:06:18;10.98;;;7.50;;
76935;SDS011;65881;52.438;16.744;2023-05-10T04:08:44;9.13;;;6.88;;
76935;SDS011;65881;52.438;16.744;2023-05-10T04:11:10;11.50;;;7.53;;
76935;SDS011;65881;52.438;16.744;2023-05-10T04:13:37;8.60;;;6.70;;
76935;SDS011;65881;52.438;16.744;2023-05-10T04:16:03;11.82;;;7.65;;
76935;SDS011;65881;52.438;16.744;2023-05-10T04:18:29;7.65;;;6.43;;
76935;SDS011;65881;52.438;16.744;2023-05-10T04:20:55;10.85;;;7.53;;
76935;SDS011;65881;52.438;16.744;2023-05-10T04:23:20;10.57;;;6.93;;
76935;SDS011;65881;52.438;16.744;2023-05-10T04:25:46;11.23;;;7.45;;
76935;SDS011;65881;52.438;16.744;2023-05-10T04:28:12;8.80;;;7.18;;
76935;SDS011;65881;52.438;16.744;2023-05-10T04:30:38;15.20;;;6.72;;
76935;SDS011;65881;52.438;16.744;2023-05-10T04:33:03;9.00;;;7.28;;
76935;SDS011;65881;52.438;16.744;2023-05-10T04:35:29;14.77;;;7.40;;
76935;SDS011;65881;52.438;16.744;2023-05-10T04:37:55;11.00;;;7.55;;
76935;SDS011;65881;52.438;16.744;2023-05-10T04:40:20;10.20;;;6.97;;
76935;SDS011;65881;52.438;16.744;2023-05-10T04:42:46;13.95;;;8.05;;
76935;SDS011;65881;52.438;16.744;2023-05-10T04:45:12;9.88;;;7.15;;
76935;SDS011;65881;52.438;16.744;2023-05-10T04:47:39;14.73;;;7.53;;
76935;SDS011;65881;52.438;16.744;2023-05-10T04:50:05;11.15;;;7.32;;
76935;SDS011;65881;52.438;16.744;2023-05-10T04:52:32;11.70;;;7.07;;
76935;SDS011;65881;52.438;16.744;2023-05-10T04:54:58;11.50;;;7.60;;
76935;SDS011;65881;52.438;16.744;2023-05-10T04:57:24;9.82;;;6.30;;
76935;SDS011;65881;52.438;16.744;2023-05-10T04:59:50;11.38;;;6.60;;
76935;SDS011;65881;52.438;16.744;2023-05-10T05:02:16;11.68;;;7.03;;
76935;SDS011;65881;52.438;16.744;2023-05-10T05:04:41;14.75;;;9.18;;
76935;SDS011;65881;52.438;16.744;2023-05-10T05:07:07;11.48;;;7.10;;
76935;SDS011;65881;52.438;16.744;2023-05-10T05:09:33;12.90;;;7.70;;
76935;SDS011;65881;52.438;16.744;2023-05-10T05:11:58;9.15;;;6.97;;
76935;SDS011;65881;52.438;16.744;2023-05-10T05:14:25;9.73;;;6.78;;
76935;SDS011;65881;52.438;16.744;2023-05-10T05:16:53;10.18;;;7.65;;
76935;SDS011;65881;52.438;16.744;2023-05-10T05:19:18;10.85;;;7.57;;
76935;SDS011;65881;52.438;16.744;2023-05-10T05:21:44;12.40;;;7.63;;
76935;SDS011;65881;52.438;16.744;2023-05-10T05:24:10;11.38;;;7.60;;
76935;SDS011;65881;52.438;16.744;2023-05-10T05:26:37;10.02;;;7.78;;
76935;SDS011;65881;52.438;16.744;2023-05-10T05:29:03;10.90;;;7.35;;
76935;SDS011;65881;52.438;16.744;2023-05-10T05:31:29;13.70;;;7.80;;
76935;SDS011;65881;52.438;16.744;2023-05-10T05:33:54;9.73;;;7.45;;
76935;SDS011;65881;52.438;16.744;2023-05-10T05:36:20;8.20;;;7.32;;
76935;SDS011;65881;52.438;16.744;2023-05-10T05:38:46;10.98;;;7.47;;
76935;SDS011;65881;52.438;16.744;2023-05-10T05:41:12;10.05;;;7.00;;
76935;SDS011;65881;52.438;16.744;2023-05-10T05:43:38;12.90;;;7.15;;
76935;SDS011;65881;52.438;16.744;2023-05-10T05:46:04;10.85;;;7.10;;
76935;SDS011;65881;52.438;16.744;2023-05-10T05:48:30;8.50;;;6.88;;
76935;SDS011;65881;52.438;16.744;2023-05-10T05:50:56;12.10;;;8.10;;
76935;SDS011;65881;52.438;16.744;2023-05-10T05:53:22;13.30;;;7.78;;
76935;SDS011;65881;52.438;16.744;2023-05-10T05:55:51;10.43;;;7.60;;
76935;SDS011;65881;52.438;16.744;2023-05-10T05:58:19;11.75;;;7.07;;
76935;SDS011;65881;52.438;16.744;2023-05-10T06:00:44;7.85;;;6.97;;
76935;SDS011;65881;52.438;16.744;2023-05-10T06:03:10;11.85;;;7.68;;
76935;SDS011;65881;52.438;16.744;2023-05-10T06:05:36;12.82;;;7.47;;
76935;SDS011;65881;52.438;16.744;2023-05-10T06:08:01;11.30;;;7.13;;
76935;SDS011;65881;52.438;16.744;2023-05-10T06:10:27;10.32;;;5.90;;
76935;SDS011;65881;52.438;16.744;2023-05-10T06:12:53;9.18;;;7.07;;
76935;SDS011;65881;52.438;16.744;2023-05-10T06:15:19;9.20;;;6.13;;
76935;SDS011;65881;52.438;16.744;2023-05-10T06:17:44;14.63;;;6.78;;
76935;SDS011;65881;52.438;16.744;2023-05-10T06:20:12;12.20;;;7.30;;
76935;SDS011;65881;52.438;16.744;2023-05-10T06:22:38;10.65;;;7.22;;
76935;SDS011;65881;52.438;16.744;2023-05-10T06:25:04;8.35;;;6.93;;
76935;SDS011;65881;52.438;16.744;2023-05-10T06:27:30;9.20;;;6.93;;
76935;SDS011;65881;52.438;16.744;2023-05-10T06:29:55;9.95;;;6.63;;
76935;SDS011;65881;52.438;16.744;2023-05-10T06:32:21;11.88;;;6.32;;
76935;SDS011;65881;52.438;16.744;2023-05-10T06:34:47;12.43;;;6.40;;
76935;SDS011;65881;52.438;16.744;2023-05-10T06:37:12;9.82;;;6.00;;
76935;SDS011;65881;52.438;16.744;2023-05-10T06:39:38;9.18;;;6.43;;
76935;SDS011;65881;52.438;16.744;2023-05-10T06:42:04;11.43;;;6.53;;
76935;SDS011;65881;52.438;16.744;2023-05-10T06:44:30;9.25;;;5.57;;
76935;SDS011;65881;52.438;16.744;2023-05-10T06:46:55;15.15;;;6.85;;
76935;SDS011;65881;52.438;16.744;2023-05-10T06:49:21;7.78;;;5.85;;
76935;SDS011;65881;52.438;16.744;2023-05-10T06:51:47;7.28;;;5.38;;
76935;SDS011;65881;52.438;16.744;2023-05-10T06:54:13;8.95;;;5.95;;
76935;SDS011;65881;52.438;16.744;2023-05-10T06:56:39;9.55;;;5.70;;
76935;SDS011;65881;52.438;16.744;2023-05-10T06:59:04;10.00;;;5.80;;
76935;SDS011;65881;52.438;16.744;2023-05-10T07:01:30;7.15;;;5.88;;
76935;SDS011;65881;52.438;16.744;2023-05-10T07:03:56;6.82;;;5.28;;
76935;SDS011;65881;52.438;16.744;2023-05-10T07:06:21;8.65;;;4.93;;
76935;SDS011;65881;52.438;16.744;2023-05-10T07:08:47;8.25;;;6.22;;
76935;SDS011;65881;52.438;16.744;2023-05-10T07:11:13;9.90;;;5.20;;
76935;SDS011;65881;52.438;16.744;2023-05-10T07:13:38;8.70;;;5.68;;
76935;SDS011;65881;52.438;16.744;2023-05-10T07:16:06;8.02;;;5.45;;
76935;SDS011;65881;52.438;16.744;2023-05-10T07:18:32;7.40;;;4.65;;
76935;SDS011;65881;52.438;16.744;2023-05-10T07:20:58;5.25;;;4.50;;
76935;SDS011;65881;52.438;16.744;2023-05-10T07:23:24;8.00;;;5.40;;
76935;SDS011;65881;52.438;16.744;2023-05-10T07:25:50;10.93;;;5.30;;
76935;SDS011;65881;52.438;16.744;2023-05-10T07:28:17;6.82;;;5.15;;
76935;SDS011;65881;52.438;16.744;2023-05-10T07:30:43;8.02;;;5.05;;
76935;SDS011;65881;52.438;16.744;2023-05-10T07:33:09;8.48;;;5.00;;
76935;SDS011;65881;52.438;16.744;2023-05-10T07:35:36;9.98;;;4.43;;
76935;SDS011;65881;52.438;16.744;2023-05-10T07:38:02;6.75;;;4.93;;
76935;SDS011;65881;52.438;16.744;2023-05-10T07:40:28;8.82;;;4.65;;
76935;SDS011;65881;52.438;16.744;2023-05-10T07:42:54;7.40;;;4.60;;
76935;SDS011;65881;52.438;16.744;2023-05-10T07:45:19;5.90;;;4.68;;
76935;SDS011;65881;52.438;16.744;2023-05-10T07:47:45;5.53;;;4.10;;
76935;SDS011;65881;52.438;16.744;2023-05-10T07:50:11;5.85;;;4.70;;
76935;SDS011;65881;52.438;16.744;2023-05-10T07:52:39;6.10;;;5.07;;
76935;SDS011;65881;52.438;16.744;2023-05-10T07:55:05;8.38;;;5.50;;
76935;SDS011;65881;52.438;16.744;2023-05-10T07:57:33;6.75;;;4.95;;
76935;SDS011;65881;52.438;16.744;2023-05-10T07:59:59;6.32;;;4.78;;
76935;SDS011;65881;52.438;16.744;2023-05-10T08:02:24;9.95;;;5.78;;
76935;SDS011;65881;52.438;16.744;2023-05-10T08:04:50;8.20;;;4.95;;
76935;SDS011;65881;52.438;16.744;2023-05-10T08:07:16;6.22;;;3.85;;
76935;SDS011;65881;52.438;16.744;2023-05-10T08:09:42;8.80;;;4.60;;
76935;SDS011;65881;52.438;16.744;2023-05-10T08:12:10;7.47;;;4.35;;
76935;SDS011;65881;52.438;16.744;2023-05-10T08:14:36;6.35;;;4.28;;
76935;SDS011;65881;52.438;16.744;2023-05-10T08:17:02;6.05;;;3.88;;
76935;SDS011;65881;52.438;16.744;2023-05-10T08:19:28;5.82;;;4.60;;
76935;SDS011;65881;52.438;16.744;2023-05-10T08:21:54;5.13;;;4.43;;
76935;SDS011;65881;52.438;16.744;2023-05-10T08:24:21;7.95;;;4.28;;
76935;SDS011;65881;52.438;16.744;2023-05-10T08:26:47;6.57;;;4.00;;
76935;SDS011;65881;52.438;16.744;2023-05-10T08:29:13;7.55;;;4.47;;
76935;SDS011;65881;52.438;16.744;2023-05-10T08:31:39;4.38;;;3.50;;
76935;SDS011;65881;52.438;16.744;2023-05-10T08:34:05;6.47;;;4.13;;
76935;SDS011;65881;52.438;16.744;2023-05-10T08:36:30;5.35;;;3.90;;
76935;SDS011;65881;52.438;16.744;2023-05-10T08:38:57;7.75;;;4.15;;
76935;SDS011;65881;52.438;16.744;2023-05-10T08:41:23;5.38;;;4.15;;
76935;SDS011;65881;52.438;16.744;2023-05-10T08:43:51;6.90;;;4.20;;
76935;SDS011;65881;52.438;16.744;2023-05-10T08:46:22;7.00;;;5.50;;
76935;SDS011;65881;52.438;16.744;2023-05-10T08:48:49;5.72;;;4.32;;
76935;SDS011;65881;52.438;16.744;2023-05-10T08:51:20;7.72;;;4.38;;
76935;SDS011;65881;52.438;16.744;2023-05-10T08:53:48;5.53;;;4.35;;
76935;SDS011;65881;52.438;16.744;2023-05-10T08:56:15;6.03;;;4.35;;
76935;SDS011;65881;52.438;16.744;2023-05-10T08:58:41;5.28;;;4.00;;
76935;SDS011;65881;52.438;16.744;2023-05-10T09:01:07;7.45;;;4.00;;
76935;SDS011;65881;52.438;16.744;2023-05-10T09:03:34;5.25;;;3.58;;
76935;SDS011;65881;52.438;16.744;2023-05-10T09:06:03;4.80;;;3.45;;
76935;SDS011;65881;52.438;16.744;2023-05-10T09:08:30;4.70;;;3.42;;
76935;SDS011;65881;52.438;16.744;2023-05-10T09:10:56;7.43;;;3.78;;
76935;SDS011;65881;52.438;16.744;2023-05-10T09:13:22;5.90;;;3.40;;
76935;SDS011;65881;52.438;16.744;2023-05-10T09:15:49;5.32;;;3.55;;
76935;SDS011;65881;52.438;16.744;2023-05-10T09:18:16;5.90;;;3.75;;
76935;SDS011;65881;52.438;16.744;2023-05-10T09:20:42;4.50;;;3.70;;
76935;SDS011;65881;52.438;16.744;2023-05-10T09:23:10;5.05;;;3.53;;
76935;SDS011;65881;52.438;16.744;2023-05-10T09:25:41;7.63;;;3.35;;
76935;SDS011;65881;52.438;16.744;2023-05-10T09:28:07;9.15;;;3.88;;
76935;SDS011;65881;52.438;16.744;2023-05-10T09:30:34;3.40;;;2.85;;
76935;SDS011;65881;52.438;16.744;2023-05-10T09:33:00;5.88;;;3.15;;
76935;SDS011;65881;52.438;16.744;2023-05-10T09:35:27;4.97;;;2.75;;
76935;SDS011;65881;52.438;16.744;2023-05-10T09:37:55;5.65;;;3.10;;
76935;SDS011;65881;52.438;16.744;2023-05-10T09:40:22;4.75;;;2.72;;
76935;SDS011;65881;52.438;16.744;2023-05-10T09:43:11;5.95;;;3.10;;
76935;SDS011;65881;52.438;16.744;2023-05-10T09:45:36;6.68;;;3.13;;
76935;SDS011;65881;52.438;16.744;2023-05-10T09:48:02;6.43;;;2.80;;
76935;SDS011;65881;52.438;16.744;2023-05-10T09:50:30;4.70;;;3.05;;
76935;SDS011;65881;52.438;16.744;2023-05-10T09:52:57;10.40;;;3.67;;
76935;SDS011;65881;52.438;16.744;2023-05-10T09:58:10;4.22;;;2.72;;
76935;SDS011;65881;52.438;16.744;2023-05-10T10:00:38;3.95;;;2.60;;
76935;SDS011;65881;52.438;16.744;2023-05-10T10:03:14;3.20;;;2.53;;
76935;SDS011;65881;52.438;16.744;2023-05-10T10:05:45;3.53;;;2.38;;
76935;SDS011;65881;52.438;16.744;2023-05-10T10:08:13;6.10;;;2.38;;
76935;SDS011;65881;52.438;16.744;2023-05-10T10:10:39;8.40;;;2.65;;
76935;SDS011;65881;52.438;16.744;2023-05-10T10:13:05;5.38;;;3.47;;
76935;SDS011;65881;52.438;16.744;2023-05-10T10:15:32;3.63;;;2.53;;
76935;SDS011;65881;52.438;16.744;2023-05-10T10:17:59;3.80;;;2.88;;
76935;SDS011;65881;52.438;16.744;2023-05-10T10:20:25;4.07;;;2.78;;
76935;SDS011;65881;52.438;16.744;2023-05-10T10:22:52;3.78;;;2.72;;
76935;SDS011;65881;52.438;16.744;2023-05-10T10:25:18;4.00;;;3.28;;
76935;SDS011;65881;52.438;16.744;2023-05-10T10:28:02;5.07;;;2.70;;
76935;SDS011;65881;52.438;16.744;2023-05-10T10:30:43;4.50;;;3.00;;
76935;SDS011;65881;52.438;16.744;2023-05-10T10:36:19;7.07;;;3.08;;
76935;SDS011;65881;52.438;16.744;2023-05-10T10:41:26;3.33;;;2.50;;
76935;SDS011;65881;52.438;16.744;2023-05-10T10:46:59;6.75;;;3.22;;
76935;SDS011;65881;52.438;16.744;2023-05-10T10:49:30;4.75;;;2.95;;
76935;SDS011;65881;52.438;16.744;2023-05-10T10:52:20;7.95;;;3.22;;
76935;SDS011;65881;52.438;16.744;2023-05-10T10:54:49;6.35;;;3.05;;
76935;SDS011;65881;52.438;16.744;2023-05-10T10:57:17;7.28;;;2.63;;
76935;SDS011;65881;52.438;16.744;2023-05-10T11:05:22;4.68;;;3.13;;
76935;SDS011;65881;52.438;16.744;2023-05-10T11:08:06;4.78;;;3.08;;
76935;SDS011;65881;52.438;16.744;2023-05-10T11:13:02;7.25;;;3.33;;
76935;SDS011;65881;52.438;16.744;2023-05-10T11:18:20;5.53;;;2.88;;
76935;SDS011;65881;52.438;16.744;2023-05-10T11:20:52;3.90;;;3.17;;
76935;SDS011;65881;52.438;16.744;2023-05-10T11:23:33;6.35;;;2.92;;
76935;SDS011;65881;52.438;16.744;2023-05-10T11:26:12;5.78;;;2.80;;
76935;SDS011;65881;52.438;16.744;2023-05-10T11:28:45;6.13;;;2.85;;
76935;SDS011;65881;52.438;16.744;2023-05-10T11:31:18;5.55;;;2.72;;
76935;SDS011;65881;52.438;16.744;2023-05-10T11:33:49;3.25;;;2.70;;
76935;SDS011;65881;52.438;16.744;2023-05-10T11:36:17;9.43;;;3.67;;
76935;SDS011;65881;52.438;16.744;2023-05-10T11:38:48;4.10;;;2.92;;
76935;SDS011;65881;52.438;16.744;2023-05-10T11:41:15;6.22;;;3.10;;
76935;SDS011;65881;52.438;16.744;2023-05-10T11:43:42;9.93;;;3.33;;
76935;SDS011;65881;52.438;16.744;2023-05-10T11:46:09;5.00;;;3.95;;
76935;SDS011;65881;52.438;16.744;2023-05-10T11:48:40;5.43;;;3.20;;
76935;SDS011;65881;52.438;16.744;2023-05-10T11:51:06;6.47;;;3.05;;
76935;SDS011;65881;52.438;16.744;2023-05-10T11:53:33;7.25;;;2.65;;
76935;SDS011;65881;52.438;16.744;2023-05-10T11:56:05;4.00;;;3.10;;
76935;SDS011;65881;52.438;16.744;2023-05-10T11:58:31;5.00;;;3.50;;
76935;SDS011;65881;52.438;16.744;2023-05-10T12:01:01;4.68;;;2.88;;
76935;SDS011;65881;52.438;16.744;2023-05-10T12:03:28;3.60;;;3.03;;
76935;SDS011;65881;52.438;16.744;2023-05-10T12:05:54;3.72;;;3.10;;
76935;SDS011;65881;52.438;16.744;2023-05-10T12:08:22;6.32;;;3.03;;
76935;SDS011;65881;52.438;16.744;2023-05-10T12:10:48;5.38;;;3.70;;
76935;SDS011;65881;52.438;16.744;2023-05-10T12:13:14;4.03;;;2.85;;
76935;SDS011;65881;52.438;16.744;2023-05-10T12:15:41;5.05;;;3.45;;
76935;SDS011;65881;52.438;16.744;2023-05-10T12:18:10;5.55;;;2.97;;
76935;SDS011;65881;52.438;16.744;2023-05-10T12:20:37;5.63;;;2.80;;
76935;SDS011;65881;52.438;16.744;2023-05-10T12:23:08;5.70;;;3.17;;
76935;SDS011;65881;52.438;16.744;2023-05-10T12:25:36;3.60;;;3.10;;
76935;SDS011;65881;52.438;16.744;2023-05-10T12:28:06;4.28;;;2.85;;
76935;SDS011;65881;52.438;16.744;2023-05-10T12:30:33;4.70;;;3.13;;
76935;SDS011;65881;52.438;16.744;2023-05-10T12:33:07;3.47;;;2.70;;
76935;SDS011;65881;52.438;16.744;2023-05-10T12:35:43;6.28;;;3.22;;
76935;SDS011;65881;52.438;16.744;2023-05-10T12:38:27;4.55;;;2.70;;
76935;SDS011;65881;52.438;16.744;2023-05-10T12:40:59;4.90;;;2.78;;
76935;SDS011;65881;52.438;16.744;2023-05-10T12:43:26;4.65;;;3.17;;
76935;SDS011;65881;52.438;16.744;2023-05-10T12:45:52;5.70;;;3.00;;
76935;SDS011;65881;52.438;16.744;2023-05-10T12:48:18;4.70;;;3.13;;
76935;SDS011;65881;52.438;16.744;2023-05-10T12:50:43;6.40;;;2.85;;
76935;SDS011;65881;52.438;16.744;2023-05-10T12:53:10;4.45;;;2.67;;
76935;SDS011;65881;52.438;16.744;2023-05-10T12:55:35;3.80;;;3.28;;
76935;SDS011;65881;52.438;16.744;2023-05-10T12:58:01;6.55;;;3.08;;
76935;SDS011;65881;52.438;16.744;2023-05-10T13:00:26;5.68;;;3.42;;
76935;SDS011;65881;52.438;16.744;2023-05-10T13:02:52;7.97;;;3.70;;
76935;SDS011;65881;52.438;16.744;2023-05-10T13:05:18;4.28;;;2.78;;
76935;SDS011;65881;52.438;16.744;2023-05-10T13:07:44;6.15;;;3.13;;
76935;SDS011;65881;52.438;16.744;2023-05-10T13:10:10;5.13;;;3.53;;
76935;SDS011;65881;52.438;16.744;2023-05-10T13:12:36;3.55;;;2.80;;
76935;SDS011;65881;52.438;16.744;2023-05-10T13:15:02;4.90;;;3.58;;
76935;SDS011;65881;52.438;16.744;2023-05-10T13:17:29;5.03;;;3.13;;
76935;SDS011;65881;52.438;16.744;2023-05-10T13:19:55;7.05;;;3.40;;
76935;SDS011;65881;52.438;16.744;2023-05-10T13:22:24;6.00;;;3.35;;
76935;SDS011;65881;52.438;16.744;2023-05-10T13:24:49;7.07;;;2.95;;
76935;SDS011;65881;52.438;16.744;2023-05-10T13:27:21;5.47;;;3.40;;
76935;SDS011;65881;52.438;16.744;2023-05-10T13:29:53;3.53;;;2.78;;
76935;SDS011;65881;52.438;16.744;2023-05-10T13:32:29;4.60;;;3.58;;
76935;SDS011;65881;52.438;16.744;2023-05-10T13:34:55;6.35;;;3.28;;
76935;SDS011;65881;52.438;16.744;2023-05-10T13:37:21;4.55;;;3.30;;
76935;SDS011;65881;52.438;16.744;2023-05-10T13:39:53;6.45;;;3.30;;
76935;SDS011;65881;52.438;16.744;2023-05-10T13:42:18;4.07;;;3.10;;
76935;SDS011;65881;52.438;16.744;2023-05-10T13:44:45;5.30;;;3.10;;
76935;SDS011;65881;52.438;16.744;2023-05-10T13:47:20;5.05;;;4.05;;
76935;SDS011;65881;52.438;16.744;2023-05-10T13:49:52;6.90;;;3.40;;
76935;SDS011;65881;52.438;16.744;2023-05-10T13:52:26;4.32;;;3.08;;
76935;SDS011;65881;52.438;16.744;2023-05-10T13:54:52;5.00;;;3.72;;
76935;SDS011;65881;52.438;16.744;2023-05-10T13:57:27;4.20;;;3.17;;
76935;SDS011;65881;52.438;16.744;2023-05-10T13:59:53;4.15;;;3.28;;
76935;SDS011;65881;52.438;16.744;2023-05-10T14:02:20;5.25;;;3.33;;
76935;SDS011;65881;52.438;16.744;2023-05-10T14:04:48;4.47;;;3.10;;
76935;SDS011;65881;52.438;16.744;2023-05-10T14:07:13;3.67;;;3.22;;
76935;SDS011;65881;52.438;16.744;2023-05-10T14:09:45;5.00;;;3.55;;
76935;SDS011;65881;52.438;16.744;2023-05-10T14:12:11;4.10;;;3.13;;
76935;SDS011;65881;52.438;16.744;2023-05-10T14:14:40;4.25;;;3.28;;
76935;SDS011;65881;52.438;16.744;2023-05-10T14:17:12;5.70;;;3.67;;
76935;SDS011;65881;52.438;16.744;2023-05-10T14:19:37;6.30;;;3.40;;
76935;SDS011;65881;52.438;16.744;2023-05-10T14:22:07;7.45;;;3.90;;
76935;SDS011;65881;52.438;16.744;2023-05-10T14:24:32;4.38;;;3.22;;
76935;SDS011;65881;52.438;16.744;2023-05-10T14:26:58;9.02;;;3.72;;
76935;SDS011;65881;52.438;16.744;2023-05-10T14:29:25;6.45;;;3.88;;
76935;SDS011;65881;52.438;16.744;2023-05-10T14:31:51;5.43;;;4.00;;
76935;SDS011;65881;52.438;16.744;2023-05-10T14:34:16;5.30;;;3.55;;
76935;SDS011;65881;52.438;16.744;2023-05-10T14:36:42;3.72;;;3.28;;
76935;SDS011;65881;52.438;16.744;2023-05-10T14:39:08;4.03;;;3.63;;
76935;SDS011;65881;52.438;16.744;2023-05-10T14:41:35;4.80;;;3.97;;
76935;SDS011;65881;52.438;16.744;2023-05-10T14:44:07;6.55;;;3.88;;
76935;SDS011;65881;52.438;16.744;2023-05-10T14:46:42;5.30;;;4.28;;
76935;SDS011;65881;52.438;16.744;2023-05-10T14:49:08;4.65;;;4.07;;
76935;SDS011;65881;52.438;16.744;2023-05-10T14:51:36;5.38;;;3.50;;
76935;SDS011;65881;52.438;16.744;2023-05-10T14:54:07;4.43;;;3.83;;
76935;SDS011;65881;52.438;16.744;2023-05-10T14:56:33;7.18;;;3.92;;
76935;SDS011;65881;52.438;16.744;2023-05-10T14:58:59;4.60;;;3.85;;
76935;SDS011;65881;52.438;16.744;2023-05-10T15:01:25;5.57;;;4.25;;
76935;SDS011;65881;52.438;16.744;2023-05-10T15:03:51;7.53;;;4.85;;
76935;SDS011;65881;52.438;16.744;2023-05-10T15:06:16;6.03;;;3.60;;
76935;SDS011;65881;52.438;16.744;2023-05-10T15:08:55;12.88;;;4.85;;
76935;SDS011;65881;52.438;16.744;2023-05-10T15:11:20;4.38;;;3.70;;
76935;SDS011;65881;52.438;16.744;2023-05-10T15:13:46;6.00;;;3.88;;
76935;SDS011;65881;52.438;16.744;2023-05-10T15:16:12;4.93;;;3.80;;